sensor_id;sensor_type;location;lat;lon;timestamp;P1;durP1;ratioP1;P2;durP2;ratioP2
16031;SDS011;8120;48.308;8.914;2024-02-16T00:01:13;3.43;;;2.03;;
16031;SDS011;8120;48.308;8.914;2024-02-16T00:03:41;2.63;;;2.00;;
16031;SDS011;8120;48.308;8.914;2024-02-16T00:06:09;6.20;;;2.00;;
16031;SDS011;8120;48.308;8.914;2024-02-16T00:08:39;2.50;;;1.83;;
16031;SDS011;8120;48.308;8.914;2024-02-16T00:11:08;2.70;;;2.17;;
16031;SDS011;8120;48.308;8.914;2024-02-16T00:13:36;2.87;;;2.10;;
16031;SDS011;8120;48.308;8.914;2024-02-16T00:16:04;2.27;;;1.87;;
16031;SDS011;8120;48.308;8.914;2024-02-16T00:18:32;2.00;;;1.67;;
16031;SDS011;8120;48.308;8.914;2024-02-16T00:21:00;2.90;;;1.80;;
16031;SDS011;8120;48.308;8.914;2024-02-16T00:23:29;2.27;;;1.60;;
16031;SDS011;8120;48.308;8.914;2024-02-16T00:25:58;3.13;;;1.70;;
16031;SDS011;8120;48.308;8.914;2024-02-16T00:28:26;2.30;;;1.60;;
16031;SDS011;8120;48.308;8.914;2024-02-16T00:30:54;3.27;;;1.80;;
16031;SDS011;8120;48.308;8.914;2024-02-16T00:33:22;1.83;;;1.47;;
16031;SDS011;8120;48.308;8.914;2024-02-16T00:35:49;2.40;;;1.80;;
16031;SDS011;8120;48.308;8.914;2024-02-16T00:38:19;2.73;;;1.70;;
16031;SDS011;8120;48.308;8.914;2024-02-16T00:40:47;3.50;;;1.47;;
16031;SDS011;8120;48.308;8.914;2024-02-16T00:43:16;2.07;;;1.60;;
16031;SDS011;8120;48.308;8.914;2024-02-16T00:45:44;2.57;;;1.77;;
16031;SDS011;8120;48.308;8.914;2024-02-16T00:48:12;3.47;;;2.10;;
16031;SDS011;8120;48.308;8.914;2024-02-16T00:50:40;6.63;;;3.30;;
16031;SDS011;8120;48.308;8.914;2024-02-16T00:53:09;4.87;;;2.50;;
16031;SDS011;8120;48.308;8.914;2024-02-16T00:55:37;4.27;;;2.33;;
16031;SDS011;8120;48.308;8.914;2024-02-16T00:58:08;1.63;;;1.53;;
16031;SDS011;8120;48.308;8.914;2024-02-16T01:00:37;4.67;;;2.30;;
16031;SDS011;8120;48.308;8.914;2024-02-16T01:03:05;3.13;;;1.80;;
16031;SDS011;8120;48.308;8.914;2024-02-16T01:05:33;4.17;;;1.63;;
16031;SDS011;8120;48.308;8.914;2024-02-16T01:08:02;2.30;;;1.63;;
16031;SDS011;8120;48.308;8.914;2024-02-16T01:10:30;3.27;;;2.20;;
16031;SDS011;8120;48.308;8.914;2024-02-16T01:12:57;3.97;;;2.10;;
16031;SDS011;8120;48.308;8.914;2024-02-16T01:15:25;4.90;;;2.13;;
16031;SDS011;8120;48.308;8.914;2024-02-16T01:17:55;4.33;;;2.20;;
16031;SDS011;8120;48.308;8.914;2024-02-16T01:20:23;4.50;;;2.17;;
16031;SDS011;8120;48.308;8.914;2024-02-16T01:22:50;3.20;;;1.80;;
16031;SDS011;8120;48.308;8.914;2024-02-16T01:25:18;6.17;;;2.03;;
16031;SDS011;8120;48.308;8.914;2024-02-16T01:27:46;4.90;;;2.10;;
16031;SDS011;8120;48.308;8.914;2024-02-16T01:30:14;5.73;;;2.53;;
16031;SDS011;8120;48.308;8.914;2024-02-16T01:32:44;4.50;;;2.40;;
16031;SDS011;8120;48.308;8.914;2024-02-16T01:35:14;5.17;;;2.30;;
16031;SDS011;8120;48.308;8.914;2024-02-16T01:37:42;7.73;;;2.83;;
16031;SDS011;8120;48.308;8.914;2024-02-16T01:40:10;3.77;;;2.20;;
16031;SDS011;8120;48.308;8.914;2024-02-16T01:42:40;4.60;;;2.53;;
16031;SDS011;8120;48.308;8.914;2024-02-16T01:45:09;5.43;;;2.73;;
16031;SDS011;8120;48.308;8.914;2024-02-16T01:47:37;4.63;;;2.37;;
16031;SDS011;8120;48.308;8.914;2024-02-16T01:50:06;4.27;;;2.60;;
16031;SDS011;8120;48.308;8.914;2024-02-16T01:52:37;3.77;;;2.30;;
16031;SDS011;8120;48.308;8.914;2024-02-16T01:55:05;3.03;;;2.30;;
16031;SDS011;8120;48.308;8.914;2024-02-16T01:57:35;4.00;;;2.33;;
16031;SDS011;8120;48.308;8.914;2024-02-16T02:00:03;4.30;;;2.47;;
16031;SDS011;8120;48.308;8.914;2024-02-16T02:02:34;2.73;;;2.00;;
16031;SDS011;8120;48.308;8.914;2024-02-16T02:05:02;3.37;;;2.37;;
16031;SDS011;8120;48.308;8.914;2024-02-16T02:07:31;2.53;;;1.90;;
16031;SDS011;8120;48.308;8.914;2024-02-16T02:10:00;2.80;;;2.10;;
16031;SDS011;8120;48.308;8.914;2024-02-16T02:12:29;2.80;;;1.53;;
16031;SDS011;8120;48.308;8.914;2024-02-16T02:14:57;2.30;;;1.60;;
16031;SDS011;8120;48.308;8.914;2024-02-16T02:17:25;2.60;;;1.57;;
16031;SDS011;8120;48.308;8.914;2024-02-16T02:19:53;3.77;;;1.80;;
16031;SDS011;8120;48.308;8.914;2024-02-16T02:22:23;2.40;;;1.63;;
16031;SDS011;8120;48.308;8.914;2024-02-16T02:24:53;2.70;;;1.67;;
16031;SDS011;8120;48.308;8.914;2024-02-16T02:27:22;2.83;;;1.80;;
16031;SDS011;8120;48.308;8.914;2024-02-16T02:29:50;3.50;;;1.57;;
16031;SDS011;8120;48.308;8.914;2024-02-16T02:32:18;4.40;;;1.37;;
16031;SDS011;8120;48.308;8.914;2024-02-16T02:34:45;1.83;;;1.43;;
16031;SDS011;8120;48.308;8.914;2024-02-16T02:37:14;2.13;;;1.30;;
16031;SDS011;8120;48.308;8.914;2024-02-16T02:39:43;2.70;;;1.50;;
16031;SDS011;8120;48.308;8.914;2024-02-16T02:42:11;1.97;;;1.47;;
16031;SDS011;8120;48.308;8.914;2024-02-16T02:44:39;3.37;;;1.53;;
16031;SDS011;8120;48.308;8.914;2024-02-16T02:47:08;1.53;;;1.30;;
16031;SDS011;8120;48.308;8.914;2024-02-16T02:49:36;2.60;;;1.50;;
16031;SDS011;8120;48.308;8.914;2024-02-16T02:52:04;1.87;;;1.70;;
16031;SDS011;8120;48.308;8.914;2024-02-16T02:54:32;2.93;;;1.53;;
16031;SDS011;8120;48.308;8.914;2024-02-16T02:57:02;2.90;;;1.67;;
16031;SDS011;8120;48.308;8.914;2024-02-16T02:59:30;2.63;;;1.53;;
16031;SDS011;8120;48.308;8.914;2024-02-16T03:01:58;3.33;;;1.73;;
16031;SDS011;8120;48.308;8.914;2024-02-16T03:04:26;3.23;;;1.47;;
16031;SDS011;8120;48.308;8.914;2024-02-16T03:06:54;1.37;;;1.17;;
16031;SDS011;8120;48.308;8.914;2024-02-16T03:09:22;2.13;;;1.43;;
16031;SDS011;8120;48.308;8.914;2024-02-16T03:11:50;2.50;;;1.47;;
16031;SDS011;8120;48.308;8.914;2024-02-16T03:14:20;3.83;;;2.10;;
16031;SDS011;8120;48.308;8.914;2024-02-16T03:16:48;3.83;;;2.00;;
16031;SDS011;8120;48.308;8.914;2024-02-16T03:19:16;5.20;;;2.27;;
16031;SDS011;8120;48.308;8.914;2024-02-16T03:21:46;2.37;;;1.60;;
16031;SDS011;8120;48.308;8.914;2024-02-16T03:24:14;3.30;;;1.83;;
16031;SDS011;8120;48.308;8.914;2024-02-16T03:26:42;2.30;;;1.43;;
16031;SDS011;8120;48.308;8.914;2024-02-16T03:29:10;2.10;;;1.47;;
16031;SDS011;8120;48.308;8.914;2024-02-16T03:31:39;1.87;;;1.20;;
16031;SDS011;8120;48.308;8.914;2024-02-16T03:34:07;2.57;;;1.23;;
16031;SDS011;8120;48.308;8.914;2024-02-16T03:36:35;2.47;;;1.23;;
16031;SDS011;8120;48.308;8.914;2024-02-16T03:39:03;2.37;;;1.47;;
16031;SDS011;8120;48.308;8.914;2024-02-16T03:41:32;2.23;;;1.50;;
16031;SDS011;8120;48.308;8.914;2024-02-16T03:44:00;2.83;;;1.37;;
16031;SDS011;8120;48.308;8.914;2024-02-16T03:46:28;1.47;;;1.17;;
16031;SDS011;8120;48.308;8.914;2024-02-16T03:48:57;3.53;;;1.23;;
16031;SDS011;8120;48.308;8.914;2024-02-16T03:51:26;1.53;;;1.30;;
16031;SDS011;8120;48.308;8.914;2024-02-16T03:53:54;1.57;;;1.10;;
16031;SDS011;8120;48.308;8.914;2024-02-16T03:56:22;2.97;;;1.10;;
16031;SDS011;8120;48.308;8.914;2024-02-16T03:58:49;2.10;;;1.30;;
16031;SDS011;8120;48.308;8.914;2024-02-16T04:01:17;1.43;;;1.10;;
16031;SDS011;8120;48.308;8.914;2024-02-16T04:03:45;1.60;;;1.00;;
16031;SDS011;8120;48.308;8.914;2024-02-16T04:06:14;1.23;;;1.10;;
16031;SDS011;8120;48.308;8.914;2024-02-16T04:08:42;1.57;;;1.10;;
16031;SDS011;8120;48.308;8.914;2024-02-16T04:11:10;2.50;;;1.17;;
16031;SDS011;8120;48.308;8.914;2024-02-16T04:13:39;3.13;;;1.50;;
16031;SDS011;8120;48.308;8.914;2024-02-16T04:16:07;2.30;;;1.20;;
16031;SDS011;8120;48.308;8.914;2024-02-16T04:18:35;1.97;;;1.30;;
16031;SDS011;8120;48.308;8.914;2024-02-16T04:21:03;1.57;;;1.10;;
16031;SDS011;8120;48.308;8.914;2024-02-16T04:23:32;1.23;;;0.93;;
16031;SDS011;8120;48.308;8.914;2024-02-16T04:26:00;1.73;;;1.33;;
16031;SDS011;8120;48.308;8.914;2024-02-16T04:28:28;1.77;;;1.10;;
16031;SDS011;8120;48.308;8.914;2024-02-16T04:30:56;1.20;;;1.00;;
16031;SDS011;8120;48.308;8.914;2024-02-16T04:33:24;1.07;;;0.83;;
16031;SDS011;8120;48.308;8.914;2024-02-16T04:35:52;2.20;;;1.43;;
16031;SDS011;8120;48.308;8.914;2024-02-16T04:38:20;3.73;;;2.50;;
16031;SDS011;8120;48.308;8.914;2024-02-16T04:40:49;2.30;;;1.77;;
16031;SDS011;8120;48.308;8.914;2024-02-16T04:43:17;3.87;;;1.73;;
16031;SDS011;8120;48.308;8.914;2024-02-16T04:45:45;3.00;;;2.03;;
16031;SDS011;8120;48.308;8.914;2024-02-16T04:48:13;2.37;;;1.30;;
16031;SDS011;8120;48.308;8.914;2024-02-16T04:50:41;2.10;;;1.30;;
16031;SDS011;8120;48.308;8.914;2024-02-16T04:53:09;3.83;;;1.60;;
16031;SDS011;8120;48.308;8.914;2024-02-16T04:55:37;2.30;;;1.40;;
16031;SDS011;8120;48.308;8.914;2024-02-16T04:58:06;1.90;;;1.40;;
16031;SDS011;8120;48.308;8.914;2024-02-16T05:00:36;3.20;;;1.73;;
16031;SDS011;8120;48.308;8.914;2024-02-16T05:03:04;2.33;;;1.73;;
16031;SDS011;8120;48.308;8.914;2024-02-16T05:05:33;3.13;;;1.73;;
16031;SDS011;8120;48.308;8.914;2024-02-16T05:08:00;2.23;;;1.30;;
16031;SDS011;8120;48.308;8.914;2024-02-16T05:10:29;5.70;;;2.43;;
16031;SDS011;8120;48.308;8.914;2024-02-16T05:12:56;2.63;;;1.93;;
16031;SDS011;8120;48.308;8.914;2024-02-16T05:15:27;2.87;;;1.90;;
16031;SDS011;8120;48.308;8.914;2024-02-16T05:17:55;1.93;;;1.70;;
16031;SDS011;8120;48.308;8.914;2024-02-16T05:20:24;3.80;;;2.00;;
16031;SDS011;8120;48.308;8.914;2024-02-16T05:22:52;4.07;;;2.17;;
16031;SDS011;8120;48.308;8.914;2024-02-16T05:25:20;4.10;;;1.57;;
16031;SDS011;8120;48.308;8.914;2024-02-16T05:27:48;3.30;;;1.73;;
16031;SDS011;8120;48.308;8.914;2024-02-16T05:30:15;8.07;;;4.40;;
16031;SDS011;8120;48.308;8.914;2024-02-16T05:32:45;10.03;;;5.87;;
16031;SDS011;8120;48.308;8.914;2024-02-16T05:35:14;20.10;;;13.00;;
16031;SDS011;8120;48.308;8.914;2024-02-16T05:37:43;26.50;;;14.07;;
16031;SDS011;8120;48.308;8.914;2024-02-16T05:40:15;40.10;;;17.80;;
16031;SDS011;8120;48.308;8.914;2024-02-16T05:42:51;27.67;;;11.80;;
16031;SDS011;8120;48.308;8.914;2024-02-16T05:45:19;12.20;;;6.60;;
16031;SDS011;8120;48.308;8.914;2024-02-16T05:47:49;8.40;;;4.77;;
16031;SDS011;8120;48.308;8.914;2024-02-16T05:50:19;7.83;;;4.13;;
16031;SDS011;8120;48.308;8.914;2024-02-16T05:52:48;5.77;;;3.67;;
16031;SDS011;8120;48.308;8.914;2024-02-16T05:55:17;6.57;;;3.70;;
16031;SDS011;8120;48.308;8.914;2024-02-16T05:57:46;6.43;;;4.43;;
16031;SDS011;8120;48.308;8.914;2024-02-16T06:00:14;6.07;;;3.07;;
16031;SDS011;8120;48.308;8.914;2024-02-16T06:02:42;4.37;;;2.10;;
16031;SDS011;8120;48.308;8.914;2024-02-16T06:05:12;2.93;;;1.60;;
16031;SDS011;8120;48.308;8.914;2024-02-16T06:07:40;2.67;;;1.70;;
16031;SDS011;8120;48.308;8.914;2024-02-16T06:10:08;4.60;;;2.70;;
16031;SDS011;8120;48.308;8.914;2024-02-16T06:12:37;4.37;;;2.33;;
16031;SDS011;8120;48.308;8.914;2024-02-16T06:15:06;3.03;;;1.90;;
16031;SDS011;8120;48.308;8.914;2024-02-16T06:17:35;4.40;;;2.97;;
16031;SDS011;8120;48.308;8.914;2024-02-16T06:20:04;3.80;;;2.50;;
16031;SDS011;8120;48.308;8.914;2024-02-16T06:22:37;6.10;;;3.27;;
16031;SDS011;8120;48.308;8.914;2024-02-16T06:25:05;6.03;;;3.50;;
16031;SDS011;8120;48.308;8.914;2024-02-16T06:27:33;5.53;;;3.43;;
16031;SDS011;8120;48.308;8.914;2024-02-16T06:30:01;4.00;;;2.80;;
16031;SDS011;8120;48.308;8.914;2024-02-16T06:32:30;5.60;;;2.50;;
16031;SDS011;8120;48.308;8.914;2024-02-16T06:34:58;5.17;;;2.53;;
16031;SDS011;8120;48.308;8.914;2024-02-16T06:37:25;3.67;;;2.13;;
16031;SDS011;8120;48.308;8.914;2024-02-16T06:39:54;2.70;;;2.33;;
16031;SDS011;8120;48.308;8.914;2024-02-16T06:42:22;3.60;;;2.43;;
16031;SDS011;8120;48.308;8.914;2024-02-16T06:44:50;3.83;;;2.40;;
16031;SDS011;8120;48.308;8.914;2024-02-16T06:47:18;2.80;;;2.00;;
16031;SDS011;8120;48.308;8.914;2024-02-16T06:49:46;2.90;;;1.90;;
16031;SDS011;8120;48.308;8.914;2024-02-16T06:52:14;4.70;;;3.03;;
16031;SDS011;8120;48.308;8.914;2024-02-16T06:54:42;8.93;;;4.43;;
16031;SDS011;8120;48.308;8.914;2024-02-16T06:57:12;6.63;;;3.60;;
16031;SDS011;8120;48.308;8.914;2024-02-16T06:59:40;5.83;;;3.37;;
16031;SDS011;8120;48.308;8.914;2024-02-16T07:02:08;12.47;;;7.17;;
16031;SDS011;8120;48.308;8.914;2024-02-16T07:04:39;8.57;;;5.57;;
16031;SDS011;8120;48.308;8.914;2024-02-16T07:07:07;7.97;;;4.37;;
16031;SDS011;8120;48.308;8.914;2024-02-16T07:09:35;8.00;;;3.30;;
16031;SDS011;8120;48.308;8.914;2024-02-16T07:12:06;6.77;;;3.37;;
16031;SDS011;8120;48.308;8.914;2024-02-16T07:14:36;6.40;;;3.13;;
16031;SDS011;8120;48.308;8.914;2024-02-16T07:17:04;5.40;;;2.37;;
16031;SDS011;8120;48.308;8.914;2024-02-16T07:19:35;4.73;;;3.07;;
16031;SDS011;8120;48.308;8.914;2024-02-16T07:22:04;5.47;;;3.97;;
16031;SDS011;8120;48.308;8.914;2024-02-16T07:24:33;8.93;;;3.50;;
16031;SDS011;8120;48.308;8.914;2024-02-16T07:27:01;5.13;;;3.00;;
16031;SDS011;8120;48.308;8.914;2024-02-16T07:29:29;2.60;;;2.40;;
16031;SDS011;8120;48.308;8.914;2024-02-16T07:31:59;4.40;;;2.80;;
16031;SDS011;8120;48.308;8.914;2024-02-16T07:34:26;4.17;;;2.30;;
16031;SDS011;8120;48.308;8.914;2024-02-16T07:36:55;3.67;;;2.23;;
16031;SDS011;8120;48.308;8.914;2024-02-16T07:39:23;3.23;;;1.63;;
16031;SDS011;8120;48.308;8.914;2024-02-16T07:41:51;4.37;;;2.10;;
16031;SDS011;8120;48.308;8.914;2024-02-16T07:44:19;5.47;;;2.80;;
16031;SDS011;8120;48.308;8.914;2024-02-16T07:46:47;5.00;;;3.10;;
16031;SDS011;8120;48.308;8.914;2024-02-16T07:49:18;4.27;;;2.77;;
16031;SDS011;8120;48.308;8.914;2024-02-16T07:51:46;3.73;;;2.00;;
16031;SDS011;8120;48.308;8.914;2024-02-16T07:54:14;3.73;;;1.63;;
16031;SDS011;8120;48.308;8.914;2024-02-16T07:56:42;2.57;;;1.60;;
16031;SDS011;8120;48.308;8.914;2024-02-16T07:59:10;7.83;;;4.23;;
16031;SDS011;8120;48.308;8.914;2024-02-16T08:01:38;3.20;;;1.73;;
16031;SDS011;8120;48.308;8.914;2024-02-16T08:04:06;1.93;;;1.40;;
16031;SDS011;8120;48.308;8.914;2024-02-16T08:06:36;2.80;;;1.70;;
16031;SDS011;8120;48.308;8.914;2024-02-16T08:09:04;3.37;;;2.30;;
16031;SDS011;8120;48.308;8.914;2024-02-16T08:11:32;3.43;;;2.20;;
16031;SDS011;8120;48.308;8.914;2024-02-16T08:14:00;7.83;;;2.40;;
16031;SDS011;8120;48.308;8.914;2024-02-16T08:16:29;4.20;;;2.50;;
16031;SDS011;8120;48.308;8.914;2024-02-16T08:18:57;4.43;;;2.60;;
16031;SDS011;8120;48.308;8.914;2024-02-16T08:21:25;4.83;;;2.67;;
16031;SDS011;8120;48.308;8.914;2024-02-16T08:23:54;4.17;;;2.00;;
16031;SDS011;8120;48.308;8.914;2024-02-16T08:26:22;4.70;;;2.50;;
16031;SDS011;8120;48.308;8.914;2024-02-16T08:28:50;6.30;;;2.77;;
16031;SDS011;8120;48.308;8.914;2024-02-16T08:31:18;5.33;;;2.90;;
16031;SDS011;8120;48.308;8.914;2024-02-16T08:33:46;6.33;;;3.20;;
16031;SDS011;8120;48.308;8.914;2024-02-16T08:36:14;5.10;;;3.30;;
16031;SDS011;8120;48.308;8.914;2024-02-16T08:38:42;5.17;;;3.23;;
16031;SDS011;8120;48.308;8.914;2024-02-16T08:41:11;7.03;;;3.60;;
16031;SDS011;8120;48.308;8.914;2024-02-16T08:43:39;5.60;;;2.90;;
16031;SDS011;8120;48.308;8.914;2024-02-16T08:46:07;7.80;;;3.00;;
16031;SDS011;8120;48.308;8.914;2024-02-16T08:48:35;4.63;;;2.90;;
16031;SDS011;8120;48.308;8.914;2024-02-16T08:51:03;6.33;;;3.20;;
16031;SDS011;8120;48.308;8.914;2024-02-16T08:53:32;10.43;;;2.97;;
16031;SDS011;8120;48.308;8.914;2024-02-16T08:56:00;5.77;;;3.23;;
16031;SDS011;8120;48.308;8.914;2024-02-16T08:58:29;5.33;;;3.27;;
16031;SDS011;8120;48.308;8.914;2024-02-16T09:00:57;9.53;;;4.00;;
16031;SDS011;8120;48.308;8.914;2024-02-16T09:03:25;7.53;;;4.50;;
16031;SDS011;8120;48.308;8.914;2024-02-16T09:05:53;8.37;;;4.73;;
16031;SDS011;8120;48.308;8.914;2024-02-16T09:08:21;11.13;;;5.90;;
16031;SDS011;8120;48.308;8.914;2024-02-16T09:10:49;13.37;;;7.40;;
16031;SDS011;8120;48.308;8.914;2024-02-16T09:13:17;9.43;;;6.00;;
16031;SDS011;8120;48.308;8.914;2024-02-16T09:15:59;6.23;;;3.80;;
16031;SDS011;8120;48.308;8.914;2024-02-16T09:18:29;8.50;;;4.13;;
16031;SDS011;8120;48.308;8.914;2024-02-16T09:20:57;6.23;;;3.40;;
16031;SDS011;8120;48.308;8.914;2024-02-16T09:23:25;5.17;;;3.10;;
16031;SDS011;8120;48.308;8.914;2024-02-16T09:25:54;5.20;;;2.73;;
16031;SDS011;8120;48.308;8.914;2024-02-16T09:28:22;10.70;;;6.80;;
16031;SDS011;8120;48.308;8.914;2024-02-16T09:30:55;6.00;;;3.00;;
16031;SDS011;8120;48.308;8.914;2024-02-16T09:33:25;6.03;;;2.87;;
16031;SDS011;8120;48.308;8.914;2024-02-16T09:35:54;4.57;;;2.67;;
16031;SDS011;8120;48.308;8.914;2024-02-16T09:38:22;3.93;;;2.63;;
16031;SDS011;8120;48.308;8.914;2024-02-16T09:40:50;3.93;;;2.63;;
16031;SDS011;8120;48.308;8.914;2024-02-16T09:43:24;6.87;;;3.60;;
16031;SDS011;8120;48.308;8.914;2024-02-16T09:45:54;4.50;;;2.70;;
16031;SDS011;8120;48.308;8.914;2024-02-16T09:48:23;4.70;;;2.53;;
16031;SDS011;8120;48.308;8.914;2024-02-16T09:50:53;6.30;;;3.07;;
16031;SDS011;8120;48.308;8.914;2024-02-16T09:53:24;5.83;;;3.90;;
16031;SDS011;8120;48.308;8.914;2024-02-16T09:55:52;8.87;;;5.37;;
16031;SDS011;8120;48.308;8.914;2024-02-16T09:58:20;19.03;;;14.20;;
16031;SDS011;8120;48.308;8.914;2024-02-16T10:00:49;23.47;;;17.63;;
16031;SDS011;8120;48.308;8.914;2024-02-16T10:03:21;23.17;;;17.63;;
16031;SDS011;8120;48.308;8.914;2024-02-16T10:05:52;21.57;;;17.70;;
16031;SDS011;8120;48.308;8.914;2024-02-16T10:08:20;26.37;;;20.80;;
16031;SDS011;8120;48.308;8.914;2024-02-16T10:10:48;27.23;;;21.13;;
16031;SDS011;8120;48.308;8.914;2024-02-16T10:13:16;24.13;;;18.03;;
16031;SDS011;8120;48.308;8.914;2024-02-16T10:15:44;18.47;;;12.50;;
16031;SDS011;8120;48.308;8.914;2024-02-16T10:18:11;12.87;;;10.20;;
16031;SDS011;8120;48.308;8.914;2024-02-16T10:20:40;16.73;;;10.50;;
16031;SDS011;8120;48.308;8.914;2024-02-16T10:23:09;11.83;;;7.80;;
16031;SDS011;8120;48.308;8.914;2024-02-16T10:25:38;14.43;;;8.93;;
16031;SDS011;8120;48.308;8.914;2024-02-16T10:28:09;17.10;;;9.27;;
16031;SDS011;8120;48.308;8.914;2024-02-16T10:30:40;17.10;;;9.63;;
16031;SDS011;8120;48.308;8.914;2024-02-16T10:33:09;14.87;;;10.20;;
16031;SDS011;8120;48.308;8.914;2024-02-16T10:35:40;13.30;;;9.10;;
16031;SDS011;8120;48.308;8.914;2024-02-16T10:38:10;14.10;;;9.03;;
16031;SDS011;8120;48.308;8.914;2024-02-16T10:40:39;12.43;;;8.23;;
16031;SDS011;8120;48.308;8.914;2024-02-16T10:43:08;14.70;;;9.10;;
16031;SDS011;8120;48.308;8.914;2024-02-16T10:45:37;11.70;;;8.17;;
16031;SDS011;8120;48.308;8.914;2024-02-16T10:48:07;12.13;;;7.47;;
16031;SDS011;8120;48.308;8.914;2024-02-16T10:50:35;9.90;;;6.87;;
16031;SDS011;8120;48.308;8.914;2024-02-16T10:53:06;7.90;;;5.77;;
16031;SDS011;8120;48.308;8.914;2024-02-16T10:55:39;9.53;;;5.97;;
16031;SDS011;8120;48.308;8.914;2024-02-16T10:58:07;8.60;;;4.67;;
16031;SDS011;8120;48.308;8.914;2024-02-16T11:00:47;5.53;;;2.90;;
16031;SDS011;8120;48.308;8.914;2024-02-16T11:03:16;4.07;;;2.67;;
16031;SDS011;8120;48.308;8.914;2024-02-16T11:05:45;4.83;;;3.10;;
16031;SDS011;8120;48.308;8.914;2024-02-16T11:08:14;5.20;;;2.90;;
16031;SDS011;8120;48.308;8.914;2024-02-16T11:10:53;4.30;;;2.77;;
16031;SDS011;8120;48.308;8.914;2024-02-16T11:13:22;2.80;;;2.20;;
16031;SDS011;8120;48.308;8.914;2024-02-16T11:15:57;4.77;;;2.63;;
16031;SDS011;8120;48.308;8.914;2024-02-16T11:18:27;5.30;;;2.50;;
16031;SDS011;8120;48.308;8.914;2024-02-16T11:20:55;5.20;;;2.43;;
16031;SDS011;8120;48.308;8.914;2024-02-16T11:23:29;3.63;;;2.30;;
16031;SDS011;8120;48.308;8.914;2024-02-16T11:26:00;6.37;;;2.90;;
16031;SDS011;8120;48.308;8.914;2024-02-16T11:28:30;4.83;;;1.80;;
16031;SDS011;8120;48.308;8.914;2024-02-16T11:31:00;2.97;;;1.90;;
16031;SDS011;8120;48.308;8.914;2024-02-16T11:33:29;4.13;;;2.10;;
16031;SDS011;8120;48.308;8.914;2024-02-16T11:35:57;3.60;;;1.90;;
16031;SDS011;8120;48.308;8.914;2024-02-16T11:38:26;7.60;;;2.07;;
16031;SDS011;8120;48.308;8.914;2024-02-16T11:40:58;3.97;;;1.97;;
16031;SDS011;8120;48.308;8.914;2024-02-16T11:43:27;4.90;;;2.17;;
16031;SDS011;8120;48.308;8.914;2024-02-16T11:45:55;4.40;;;2.27;;
16031;SDS011;8120;48.308;8.914;2024-02-16T11:48:23;4.43;;;1.90;;
16031;SDS011;8120;48.308;8.914;2024-02-16T11:51:03;4.60;;;1.80;;
16031;SDS011;8120;48.308;8.914;2024-02-16T11:53:31;3.37;;;1.53;;
16031;SDS011;8120;48.308;8.914;2024-02-16T11:55:59;6.03;;;1.83;;
16031;SDS011;8120;48.308;8.914;2024-02-16T11:58:27;2.90;;;2.00;;
16031;SDS011;8120;48.308;8.914;2024-02-16T12:00:57;4.00;;;2.13;;
16031;SDS011;8120;48.308;8.914;2024-02-16T12:03:29;5.43;;;2.20;;
16031;SDS011;8120;48.308;8.914;2024-02-16T12:05:58;5.27;;;2.20;;
16031;SDS011;8120;48.308;8.914;2024-02-16T12:08:33;4.67;;;2.10;;
16031;SDS011;8120;48.308;8.914;2024-02-16T12:11:02;4.70;;;2.40;;
16031;SDS011;8120;48.308;8.914;2024-02-16T12:13:30;4.87;;;2.07;;
16031;SDS011;8120;48.308;8.914;2024-02-16T12:15:58;4.47;;;2.10;;
16031;SDS011;8120;48.308;8.914;2024-02-16T12:18:26;5.17;;;1.83;;
16031;SDS011;8120;48.308;8.914;2024-02-16T12:20:59;6.30;;;2.17;;
16031;SDS011;8120;48.308;8.914;2024-02-16T12:23:27;4.57;;;2.20;;
16031;SDS011;8120;48.308;8.914;2024-02-16T12:25:58;4.60;;;2.10;;
16031;SDS011;8120;48.308;8.914;2024-02-16T12:28:27;3.10;;;1.90;;
16031;SDS011;8120;48.308;8.914;2024-02-16T12:30:55;6.10;;;1.97;;
16031;SDS011;8120;48.308;8.914;2024-02-16T12:33:27;3.93;;;1.67;;
16031;SDS011;8120;48.308;8.914;2024-02-16T12:35:55;4.87;;;1.90;;
16031;SDS011;8120;48.308;8.914;2024-02-16T12:38:23;4.20;;;2.03;;
16031;SDS011;8120;48.308;8.914;2024-02-16T12:40:51;5.73;;;2.30;;
16031;SDS011;8120;48.308;8.914;2024-02-16T12:43:20;4.23;;;1.97;;
16031;SDS011;8120;48.308;8.914;2024-02-16T12:45:48;9.33;;;2.53;;
16031;SDS011;8120;48.308;8.914;2024-02-16T12:48:16;6.53;;;3.07;;
16031;SDS011;8120;48.308;8.914;2024-02-16T12:50:44;4.97;;;2.60;;
16031;SDS011;8120;48.308;8.914;2024-02-16T12:53:13;5.00;;;2.27;;
16031;SDS011;8120;48.308;8.914;2024-02-16T12:55:41;9.53;;;2.53;;
16031;SDS011;8120;48.308;8.914;2024-02-16T12:58:10;4.90;;;2.70;;
16031;SDS011;8120;48.308;8.914;2024-02-16T13:00:40;4.93;;;2.40;;
16031;SDS011;8120;48.308;8.914;2024-02-16T13:03:08;4.13;;;2.10;;
16031;SDS011;8120;48.308;8.914;2024-02-16T13:05:37;3.87;;;2.53;;
16031;SDS011;8120;48.308;8.914;2024-02-16T13:08:05;5.17;;;2.43;;
16031;SDS011;8120;48.308;8.914;2024-02-16T13:10:33;6.80;;;2.67;;
16031;SDS011;8120;48.308;8.914;2024-02-16T13:13:01;4.83;;;2.10;;
16031;SDS011;8120;48.308;8.914;2024-02-16T13:15:29;4.37;;;2.13;;
16031;SDS011;8120;48.308;8.914;2024-02-16T13:18:00;4.23;;;2.50;;
16031;SDS011;8120;48.308;8.914;2024-02-16T13:20:28;3.27;;;1.90;;
16031;SDS011;8120;48.308;8.914;2024-02-16T13:22:57;4.47;;;1.90;;
16031;SDS011;8120;48.308;8.914;2024-02-16T13:25:26;3.77;;;1.90;;
16031;SDS011;8120;48.308;8.914;2024-02-16T13:27:53;4.83;;;1.97;;
16031;SDS011;8120;48.308;8.914;2024-02-16T13:30:21;3.57;;;2.20;;
16031;SDS011;8120;48.308;8.914;2024-02-16T13:32:49;5.53;;;2.00;;
16031;SDS011;8120;48.308;8.914;2024-02-16T13:35:18;5.30;;;1.70;;
16031;SDS011;8120;48.308;8.914;2024-02-16T13:37:47;3.23;;;1.67;;
16031;SDS011;8120;48.308;8.914;2024-02-16T13:40:15;6.80;;;1.80;;
16031;SDS011;8120;48.308;8.914;2024-02-16T13:42:44;3.80;;;1.90;;
16031;SDS011;8120;48.308;8.914;2024-02-16T13:45:12;3.93;;;1.80;;
16031;SDS011;8120;48.308;8.914;2024-02-16T13:47:40;2.60;;;1.70;;
16031;SDS011;8120;48.308;8.914;2024-02-16T13:50:08;4.60;;;2.90;;
16031;SDS011;8120;48.308;8.914;2024-02-16T13:52:38;5.63;;;1.60;;
16031;SDS011;8120;48.308;8.914;2024-02-16T13:55:07;5.80;;;2.23;;
16031;SDS011;8120;48.308;8.914;2024-02-16T13:57:35;4.43;;;1.83;;
16031;SDS011;8120;48.308;8.914;2024-02-16T14:00:06;3.67;;;1.90;;
16031;SDS011;8120;48.308;8.914;2024-02-16T14:02:34;5.23;;;2.00;;
16031;SDS011;8120;48.308;8.914;2024-02-16T14:05:02;4.30;;;1.97;;
16031;SDS011;8120;48.308;8.914;2024-02-16T14:07:31;7.17;;;2.00;;
16031;SDS011;8120;48.308;8.914;2024-02-16T14:10:12;4.97;;;2.10;;
16031;SDS011;8120;48.308;8.914;2024-02-16T14:12:40;3.80;;;2.00;;
16031;SDS011;8120;48.308;8.914;2024-02-16T14:15:08;5.10;;;2.57;;
16031;SDS011;8120;48.308;8.914;2024-02-16T14:17:41;5.27;;;2.20;;
16031;SDS011;8120;48.308;8.914;2024-02-16T14:20:10;3.87;;;2.07;;
16031;SDS011;8120;48.308;8.914;2024-02-16T14:22:38;7.63;;;2.50;;
16031;SDS011;8120;48.308;8.914;2024-02-16T14:25:06;4.47;;;2.10;;
16031;SDS011;8120;48.308;8.914;2024-02-16T14:27:38;7.30;;;2.43;;
16031;SDS011;8120;48.308;8.914;2024-02-16T14:30:06;6.13;;;2.30;;
16031;SDS011;8120;48.308;8.914;2024-02-16T14:32:35;4.33;;;2.00;;
16031;SDS011;8120;48.308;8.914;2024-02-16T14:35:03;4.60;;;2.10;;
16031;SDS011;8120;48.308;8.914;2024-02-16T14:37:32;4.20;;;2.00;;
16031;SDS011;8120;48.308;8.914;2024-02-16T14:40:00;4.17;;;2.10;;
16031;SDS011;8120;48.308;8.914;2024-02-16T14:42:30;3.63;;;2.20;;
16031;SDS011;8120;48.308;8.914;2024-02-16T14:44:59;2.83;;;1.90;;
16031;SDS011;8120;48.308;8.914;2024-02-16T14:47:29;6.40;;;2.37;;
16031;SDS011;8120;48.308;8.914;2024-02-16T14:49:57;6.73;;;2.30;;
16031;SDS011;8120;48.308;8.914;2024-02-16T14:52:25;4.10;;;1.80;;
16031;SDS011;8120;48.308;8.914;2024-02-16T14:54:53;4.77;;;2.10;;
16031;SDS011;8120;48.308;8.914;2024-02-16T14:57:21;4.57;;;1.83;;
16031;SDS011;8120;48.308;8.914;2024-02-16T14:59:51;7.17;;;2.30;;
16031;SDS011;8120;48.308;8.914;2024-02-16T15:02:23;4.80;;;2.17;;
16031;SDS011;8120;48.308;8.914;2024-02-16T15:04:51;3.47;;;1.90;;
16031;SDS011;8120;48.308;8.914;2024-02-16T15:07:20;4.37;;;1.90;;
16031;SDS011;8120;48.308;8.914;2024-02-16T15:09:48;5.27;;;2.20;;